createdAt,value
2018-01-19T00:00:33.265Z,7.81
2018-01-19T00:01:33.253Z,7.81
2018-01-19T00:02:33.233Z,7.76
2018-01-19T00:03:33.220Z,7.79
2018-01-19T00:04:33.205Z,7.77
2018-01-19T00:05:33.190Z,7.82
2018-01-19T00:06:33.181Z,7.77
2018-01-19T00:07:33.163Z,7.79
2018-01-19T00:08:33.158Z,7.82
2018-01-19T00:09:33.140Z,7.82
2018-01-19T00:10:33.134Z,7.91
2018-01-19T00:11:33.108Z,7.96
2018-01-19T00:12:33.099Z,7.92
2018-01-19T00:13:33.081Z,7.95
2018-01-19T00:14:33.067Z,7.92
2018-01-19T00:15:33.059Z,7.95
2018-01-19T00:16:33.039Z,7.99
2018-01-19T00:17:33.025Z,8.07
2018-01-19T00:18:33.017Z,8.04
2018-01-19T00:19:32.998Z,8.04
2018-01-19T00:20:32.983Z,7.94
2018-01-19T00:21:32.970Z,7.99
2018-01-19T00:22:32.958Z,7.94
2018-01-19T00:23:32.942Z,7.96
2018-01-19T00:24:32.936Z,8.04
2018-01-19T00:25:32.921Z,7.92
2018-01-19T00:26:32.905Z,7.99
2018-01-19T00:27:32.890Z,7.95
2018-01-19T00:28:32.873Z,8.04
2018-01-19T00:29:32.862Z,7.92
2018-01-19T00:30:32.847Z,8.13
2018-01-19T00:31:32.841Z,8.12
2018-01-19T00:32:32.818Z,8.12
2018-01-19T00:33:32.802Z,8.07
2018-01-19T00:34:32.790Z,8.04
2018-01-19T00:35:32.774Z,8.18
2018-01-19T00:36:32.767Z,8.13
2018-01-19T00:37:32.748Z,8.09
2018-01-19T00:38:32.733Z,8.09
2018-01-19T00:39:32.726Z,8.12
2018-01-19T00:40:32.704Z,7.99
2018-01-19T00:41:32.690Z,7.95
2018-01-19T00:42:32.675Z,7.95
2018-01-19T00:43:32.662Z,8.00
2018-01-19T00:44:32.654Z,7.95
2018-01-19T00:45:32.636Z,7.94
2018-01-19T00:46:32.626Z,7.89
2018-01-19T00:47:32.614Z,7.91
2018-01-19T00:48:32.591Z,7.79
2018-01-19T00:49:32.584Z,7.81
2018-01-19T00:50:32.564Z,7.77
2018-01-19T00:51:32.550Z,7.74
2018-01-19T00:52:32.533Z,7.77
2018-01-19T00:53:32.522Z,7.70
2018-01-19T00:54:32.506Z,7.81
2018-01-19T00:55:32.491Z,7.84
2018-01-19T00:56:32.479Z,7.94
2018-01-19T00:57:32.463Z,7.86
2018-01-19T00:58:32.450Z,7.88
2018-01-19T00:59:32.438Z,7.88
2018-01-19T01:00:32.424Z,7.81
2018-01-19T01:01:32.417Z,7.76
2018-01-19T01:02:32.393Z,7.67
2018-01-19T01:03:32.378Z,7.71
2018-01-19T01:04:32.373Z,7.66
2018-01-19T01:05:32.357Z,7.60
2018-01-19T01:06:32.337Z,7.63
2018-01-19T01:07:32.322Z,7.62
2018-01-19T01:08:32.309Z,7.76
2018-01-19T01:09:32.295Z,7.67
2018-01-19T01:10:32.279Z,7.69
2018-01-19T01:11:32.264Z,7.52
2018-01-19T01:12:32.250Z,7.45
2018-01-19T01:13:32.237Z,7.52
2018-01-19T01:14:32.221Z,7.52
2018-01-19T01:15:32.207Z,7.50
2018-01-19T01:16:32.199Z,7.62
2018-01-19T01:17:32.181Z,7.48
2018-01-19T01:18:32.175Z,7.52
2018-01-19T01:19:32.154Z,7.48
2018-01-19T01:20:32.136Z,7.47
2018-01-19T01:21:32.121Z,7.45
2018-01-19T01:22:32.107Z,7.44
2018-01-19T01:23:32.093Z,7.44
2018-01-19T01:24:32.082Z,7.52
2018-01-19T01:25:32.063Z,7.55
2018-01-19T01:26:32.047Z,7.55
2018-01-19T01:27:32.036Z,7.66
2018-01-19T01:28:32.021Z,7.67
2018-01-19T01:29:32.007Z,7.63
2018-01-19T01:30:31.991Z,7.63
2018-01-19T01:31:31.976Z,7.63
2018-01-19T01:32:31.961Z,7.63
2018-01-19T01:33:31.946Z,7.71
2018-01-19T01:34:31.932Z,7.62
2018-01-19T01:35:31.917Z,7.60
2018-01-19T01:36:31.910Z,7.63
2018-01-19T01:37:31.889Z,7.70
2018-01-19T01:38:31.874Z,7.55
2018-01-19T01:39:31.859Z,7.48
2018-01-19T01:40:31.847Z,7.55
2018-01-19T01:41:31.832Z,7.58
2018-01-19T01:42:31.819Z,7.55
2018-01-19T01:43:31.808Z,7.57
2018-01-19T01:44:31.795Z,7.45
2018-01-19T01:45:31.773Z,7.48
2018-01-19T01:46:31.765Z,7.44
2018-01-19T01:47:31.744Z,7.54
2018-01-19T01:48:31.734Z,7.54
2018-01-19T01:49:31.723Z,7.60
2018-01-19T01:50:31.714Z,7.50
2018-01-19T01:51:31.685Z,7.47
2018-01-19T01:52:31.672Z,7.45
2018-01-19T01:53:31.657Z,7.55
2018-01-19T01:54:31.644Z,7.57
2018-01-19T01:55:31.633Z,7.51
2018-01-19T01:56:31.619Z,7.54
2018-01-19T01:57:31.600Z,7.57
2018-01-19T01:58:31.585Z,7.54
2018-01-19T01:59:31.571Z,7.47
2018-01-19T02:00:31.558Z,7.48
2018-01-19T02:01:31.542Z,7.52
2018-01-19T02:02:31.529Z,7.51
2018-01-19T02:03:31.512Z,7.44
2018-01-19T02:04:31.497Z,7.48
2018-01-19T02:05:31.487Z,7.54
2018-01-19T02:06:31.469Z,7.41
2018-01-19T02:07:31.452Z,7.48
2018-01-19T02:08:31.445Z,7.48
2018-01-19T02:09:31.424Z,7.36
2018-01-19T02:10:31.410Z,7.39
2018-01-19T02:11:31.396Z,7.39
2018-01-19T02:12:31.384Z,7.41
2018-01-19T02:13:31.370Z,7.36
2018-01-19T02:14:31.359Z,7.29
2018-01-19T02:15:31.344Z,7.27
2018-01-19T02:16:31.325Z,7.16
2018-01-19T02:17:31.320Z,7.12
2018-01-19T02:18:31.297Z,7.21
2018-01-19T02:19:31.286Z,7.14
2018-01-19T02:20:31.276Z,7.15
2018-01-19T02:21:31.256Z,7.08
2018-01-19T02:22:31.243Z,7.09
2018-01-19T02:23:31.225Z,7.04
2018-01-19T02:24:31.214Z,7.01
2018-01-19T02:25:31.195Z,7.14
2018-01-19T02:26:31.181Z,6.97
2018-01-19T02:27:31.173Z,7.05
2018-01-19T02:28:31.164Z,7.01
2018-01-19T02:29:31.139Z,7.16
2018-01-19T02:30:31.124Z,7.12
2018-01-19T02:31:31.109Z,7.11
2018-01-19T02:32:31.094Z,7.15
2018-01-19T02:33:31.082Z,7.11
2018-01-19T02:34:31.067Z,7.18
2018-01-19T02:35:31.053Z,7.15
2018-01-19T02:36:31.038Z,7.16
2018-01-19T02:37:31.031Z,7.12
2018-01-19T02:38:31.009Z,7.16
2018-01-19T02:39:30.995Z,7.15
2018-01-19T02:40:30.989Z,7.18
2018-01-19T02:41:30.970Z,7.14
2018-01-19T02:42:30.952Z,7.15
2018-01-19T02:43:30.941Z,7.04
2018-01-19T02:44:30.925Z,7.14
2018-01-19T02:45:30.910Z,7.15
2018-01-19T02:46:30.897Z,7.19
2018-01-19T02:47:30.880Z,7.19
2018-01-19T02:48:30.872Z,7.27
2018-01-19T02:49:30.860Z,7.19
2018-01-19T02:50:30.840Z,7.09
2018-01-19T02:51:30.826Z,7.16
2018-01-19T02:52:30.810Z,7.12
2018-01-19T02:53:30.796Z,7.19
2018-01-19T02:54:30.783Z,7.30
2018-01-19T02:55:30.767Z,7.39
2018-01-19T02:56:30.756Z,7.32
2018-01-19T02:57:30.742Z,7.37
2018-01-19T02:58:30.728Z,7.45
2018-01-19T02:59:30.717Z,7.33
2018-01-19T03:00:30.699Z,7.45
2018-01-19T03:01:30.683Z,7.57
2018-01-19T03:02:30.669Z,7.47
2018-01-19T03:03:30.655Z,7.42
2018-01-19T03:04:30.641Z,7.45
2018-01-19T03:05:30.626Z,7.45
2018-01-19T03:06:30.614Z,7.37
2018-01-19T03:07:30.597Z,7.48
2018-01-19T03:08:30.582Z,7.45
2018-01-19T03:09:30.579Z,7.33
2018-01-19T03:10:30.561Z,7.50
2018-01-19T03:11:30.540Z,7.45
2018-01-19T03:12:30.525Z,7.45
2018-01-19T03:13:30.513Z,7.50
2018-01-19T03:14:30.499Z,7.45
2018-01-19T03:15:30.489Z,7.47
2018-01-19T03:16:30.471Z,7.52
2018-01-19T03:17:30.462Z,7.55
2018-01-19T03:18:30.443Z,7.63
2018-01-19T03:19:30.427Z,7.63
2018-01-19T03:20:30.416Z,7.66
2018-01-19T03:21:30.397Z,7.58
2018-01-19T03:22:30.385Z,7.67
2018-01-19T03:23:30.377Z,7.62
2018-01-19T03:24:30.359Z,7.58
2018-01-19T03:25:30.343Z,7.45
2018-01-19T03:26:30.332Z,7.52
2018-01-19T03:27:30.312Z,7.39
2018-01-19T03:28:30.300Z,7.48
2018-01-19T03:29:30.287Z,7.45
2018-01-19T03:30:30.271Z,7.54
2018-01-19T03:31:30.257Z,7.45
2018-01-19T03:32:30.290Z,7.44
2018-01-19T03:33:30.238Z,7.54
2018-01-19T03:34:30.213Z,7.55
2018-01-19T03:35:30.200Z,7.54
2018-01-19T03:36:30.187Z,7.52
2018-01-19T03:37:30.178Z,7.54
2018-01-19T03:38:30.155Z,7.45
2018-01-19T03:39:30.140Z,7.51
2018-01-19T03:40:30.127Z,7.44
2018-01-19T03:41:30.113Z,7.41
2018-01-19T03:42:30.100Z,7.45
2018-01-19T03:43:30.085Z,7.47
2018-01-19T03:44:30.072Z,7.45
2018-01-19T03:45:30.055Z,7.50
2018-01-19T03:46:30.041Z,7.51
2018-01-19T03:47:30.056Z,7.42
2018-01-19T03:48:30.018Z,7.50
2018-01-19T03:49:29.996Z,7.39
2018-01-19T03:50:29.982Z,7.45
2018-01-19T03:51:29.967Z,7.47
2018-01-19T03:52:29.960Z,7.51
2018-01-19T03:53:29.949Z,7.47
2018-01-19T03:54:29.924Z,7.47
2018-01-19T03:55:29.910Z,7.34
2018-01-19T03:56:29.896Z,7.48
2018-01-19T03:57:29.887Z,7.41
2018-01-19T03:58:29.874Z,7.41
2018-01-19T03:59:29.851Z,7.34
2018-01-19T04:00:29.835Z,7.37
2018-01-19T04:01:29.828Z,7.23
2018-01-19T04:02:29.815Z,7.27
2018-01-19T04:03:29.801Z,7.27
2018-01-19T04:04:29.783Z,7.26
2018-01-19T04:05:29.770Z,7.24
2018-01-19T04:06:29.756Z,7.26
2018-01-19T04:07:29.738Z,7.27
2018-01-19T04:08:29.720Z,7.32
2018-01-19T04:09:29.707Z,7.45
2018-01-19T04:10:29.692Z,7.37
2018-01-19T04:11:29.677Z,7.26
2018-01-19T04:12:29.664Z,7.34
2018-01-19T04:13:29.648Z,7.16
2018-01-19T04:14:29.636Z,7.16
2018-01-19T04:15:29.625Z,7.16
2018-01-19T04:16:29.604Z,7.19
2018-01-19T04:17:29.591Z,7.23
2018-01-19T04:18:29.583Z,7.23
2018-01-19T04:19:29.567Z,7.23
2018-01-19T04:20:29.555Z,7.18
2018-01-19T04:21:29.535Z,7.12
2018-01-19T04:22:29.524Z,7.11
2018-01-19T04:23:29.502Z,7.01
2018-01-19T04:24:29.494Z,7.07
2018-01-19T04:25:29.478Z,6.99
2018-01-19T04:26:29.467Z,6.99
2018-01-19T04:27:29.450Z,6.86
2018-01-19T04:28:29.428Z,6.81
2018-01-19T04:29:29.421Z,6.76
2018-01-19T04:30:29.403Z,6.78
2018-01-19T04:31:29.386Z,6.71
2018-01-19T04:32:29.371Z,6.75
2018-01-19T04:33:29.354Z,6.65
2018-01-19T04:34:29.346Z,6.81
2018-01-19T04:35:29.326Z,6.86
2018-01-19T04:36:29.310Z,6.91
2018-01-19T04:37:29.302Z,6.97
2018-01-19T04:38:29.286Z,6.69
2018-01-19T04:39:29.269Z,6.86
2018-01-19T04:40:29.252Z,6.79
2018-01-19T04:41:29.236Z,6.75
2018-01-19T04:42:29.224Z,6.68
2018-01-19T04:43:29.214Z,6.71
2018-01-19T04:44:29.194Z,6.71
2018-01-19T04:45:29.183Z,6.58
2018-01-19T04:46:29.162Z,6.57
2018-01-19T04:47:29.146Z,6.64
2018-01-19T04:48:29.135Z,6.72
2018-01-19T04:49:29.118Z,6.69
2018-01-19T04:50:29.102Z,6.68
2018-01-19T04:51:29.086Z,6.68
2018-01-19T04:52:29.073Z,6.50
2018-01-19T04:53:29.062Z,6.45
2018-01-19T04:54:29.041Z,6.35
2018-01-19T04:55:29.026Z,6.35
2018-01-19T04:56:29.011Z,6.32
2018-01-19T04:57:28.996Z,6.30
2018-01-19T04:58:28.981Z,6.32
2018-01-19T04:59:28.965Z,6.21
2018-01-19T05:00:28.951Z,6.17
2018-01-19T05:01:28.935Z,6.20
2018-01-19T05:02:28.921Z,6.13
2018-01-19T05:03:28.909Z,6.21
2018-01-19T05:04:28.889Z,6.27
2018-01-19T05:05:28.876Z,6.16
2018-01-19T05:06:28.867Z,6.19
2018-01-19T05:07:28.847Z,6.20
2018-01-19T05:08:28.836Z,6.19
2018-01-19T05:09:28.813Z,6.17
2018-01-19T05:10:28.802Z,6.19
2018-01-19T05:11:28.784Z,6.19
2018-01-19T05:12:28.771Z,6.16
2018-01-19T05:13:28.762Z,6.20
2018-01-19T05:14:28.743Z,6.24
2018-01-19T05:15:28.725Z,6.05
2018-01-19T05:16:28.708Z,6.11
2018-01-19T05:17:28.692Z,6.19
2018-01-19T05:18:28.683Z,6.17
2018-01-19T05:19:28.661Z,6.10
2018-01-19T05:20:28.651Z,6.19
2018-01-19T05:21:28.640Z,6.10
2018-01-19T05:22:28.618Z,6.17
2018-01-19T05:23:28.605Z,6.21
2018-01-19T05:24:28.587Z,6.25
2018-01-19T05:25:28.578Z,6.20
2018-01-19T05:26:28.559Z,6.20
2018-01-19T05:27:28.541Z,6.14
2018-01-19T05:28:28.526Z,6.40
2018-01-19T05:29:28.512Z,6.51
2018-01-19T05:30:28.497Z,6.35
2018-01-19T05:31:28.485Z,6.30
2018-01-19T05:32:28.466Z,6.25
2018-01-19T05:33:28.458Z,6.27
2018-01-19T05:34:28.439Z,6.17
2018-01-19T05:35:28.429Z,6.19
2018-01-19T05:36:28.407Z,6.17
2018-01-19T05:37:28.393Z,6.24
2018-01-19T05:38:28.377Z,6.27
2018-01-19T05:39:28.362Z,6.13
2018-01-19T05:40:28.350Z,6.14
2018-01-19T05:41:28.340Z,6.20
2018-01-19T05:42:28.315Z,6.10
2018-01-19T05:43:28.301Z,6.10
2018-01-19T05:44:28.327Z,6.24
2018-01-19T05:45:28.270Z,6.17
2018-01-19T05:46:28.258Z,6.16
2018-01-19T05:47:28.250Z,6.17
2018-01-19T05:48:28.226Z,6.14
2018-01-19T05:49:28.210Z,6.17
2018-01-19T05:50:28.195Z,6.21
2018-01-19T05:51:28.188Z,6.14
2018-01-19T05:52:28.178Z,6.16
2018-01-19T05:53:28.159Z,6.05
2018-01-19T05:54:28.145Z,6.10
2018-01-19T05:55:28.132Z,6.13
2018-01-19T05:56:28.105Z,6.10
2018-01-19T05:57:28.097Z,6.06
2018-01-19T05:58:28.082Z,6.05
2018-01-19T05:59:28.065Z,6.06
2018-01-19T06:00:28.063Z,6.02
2018-01-19T06:01:28.046Z,5.99
2018-01-19T06:02:28.015Z,5.90
2018-01-19T06:03:27.998Z,6.03
2018-01-19T06:04:27.982Z,5.96
2018-01-19T06:05:27.977Z,5.96
2018-01-19T06:06:27.956Z,5.95
2018-01-19T06:07:27.940Z,5.88
2018-01-19T06:08:27.927Z,5.99
2018-01-19T06:09:27.916Z,5.93
2018-01-19T06:10:27.893Z,6.02
2018-01-19T06:11:27.876Z,6.19
2018-01-19T06:12:27.863Z,6.14
2018-01-19T06:13:27.845Z,6.19
2018-01-19T06:14:27.832Z,6.19
2018-01-19T06:15:27.814Z,6.16
2018-01-19T06:16:27.799Z,6.16
2018-01-19T06:17:27.787Z,6.16
2018-01-19T06:18:27.770Z,6.19
2018-01-19T06:19:27.756Z,6.20
2018-01-19T06:20:27.748Z,6.25
2018-01-19T06:21:27.727Z,6.25
2018-01-19T06:22:27.708Z,6.21
2018-01-19T06:23:27.693Z,6.08
2018-01-19T06:24:27.684Z,6.10
2018-01-19T06:25:27.661Z,6.02
2018-01-19T06:26:27.653Z,6.02
2018-01-19T06:27:27.638Z,6.05
2018-01-19T06:28:27.617Z,6.02
2018-01-19T06:29:27.602Z,6.03
2018-01-19T06:30:27.592Z,6.03
2018-01-19T06:31:27.572Z,6.08
2018-01-19T06:32:27.561Z,6.05
2018-01-19T06:33:27.542Z,6.14
2018-01-19T06:34:27.528Z,6.20
2018-01-19T06:35:27.512Z,6.16
2018-01-19T06:36:27.494Z,6.24
2018-01-19T06:37:27.481Z,6.13
2018-01-19T06:38:27.467Z,6.17
2018-01-19T06:39:27.451Z,6.16
2018-01-19T06:40:27.435Z,6.19
2018-01-19T06:41:27.419Z,6.16
2018-01-19T06:42:27.409Z,6.05
2018-01-19T06:43:27.388Z,6.10
2018-01-19T06:44:27.379Z,5.98
2018-01-19T06:45:27.355Z,5.92
2018-01-19T06:46:27.340Z,5.87
2018-01-19T06:47:27.327Z,5.92
2018-01-19T06:48:27.316Z,5.90
2018-01-19T06:49:27.299Z,5.96
2018-01-19T06:50:27.283Z,5.96
2018-01-19T06:51:27.263Z,6.08
2018-01-19T06:52:27.247Z,6.05
2018-01-19T06:53:27.232Z,5.96
2018-01-19T06:54:27.218Z,5.92
2018-01-19T06:55:27.202Z,5.99
2018-01-19T06:56:27.184Z,5.95
2018-01-19T06:57:27.172Z,6.02
2018-01-19T06:58:27.164Z,5.98
2018-01-19T06:59:27.146Z,5.93
2018-01-19T07:00:27.123Z,5.93
2018-01-19T07:01:27.157Z,5.87
2018-01-19T07:02:27.090Z,5.74
2018-01-19T07:03:27.077Z,5.75
2018-01-19T07:04:27.059Z,5.69
2018-01-19T07:05:27.052Z,5.77
2018-01-19T07:06:27.040Z,5.70
2018-01-19T07:07:27.017Z,5.73
2018-01-19T07:08:26.999Z,5.75
2018-01-19T07:09:26.988Z,5.77
2018-01-19T07:10:26.971Z,5.78
2018-01-19T07:11:26.953Z,5.98
2018-01-19T07:12:26.969Z,5.93
2018-01-19T07:13:26.921Z,5.95
2018-01-19T07:14:26.910Z,5.95
2018-01-19T07:15:26.893Z,5.85
2018-01-19T07:16:26.870Z,5.81
2018-01-19T07:17:26.854Z,5.83
2018-01-19T07:18:26.839Z,5.92
2018-01-19T07:19:26.823Z,6.01
2018-01-19T07:20:26.805Z,5.99
2018-01-19T07:21:26.789Z,6.03
2018-01-19T07:22:26.775Z,6.05
2018-01-19T07:23:26.765Z,6.05
2018-01-19T07:24:26.743Z,6.16
2018-01-19T07:25:26.736Z,6.10
2018-01-19T07:26:26.715Z,6.11
2018-01-19T07:27:26.695Z,6.05
2018-01-19T07:28:26.686Z,5.92
2018-01-19T07:29:26.664Z,5.92
2018-01-19T07:30:26.654Z,6.01
2018-01-19T07:31:26.637Z,5.99
2018-01-19T07:32:26.618Z,6.01
2018-01-19T07:33:26.601Z,6.06
2018-01-19T07:34:26.590Z,5.99
2018-01-19T07:35:26.570Z,6.11
2018-01-19T07:36:26.552Z,5.99
2018-01-19T07:37:26.541Z,6.11
2018-01-19T07:38:26.522Z,6.21
2018-01-19T07:39:26.504Z,6.17
2018-01-19T07:40:26.488Z,6.19
2018-01-19T07:41:26.475Z,6.19
2018-01-19T07:42:26.456Z,6.17
2018-01-19T07:43:26.442Z,6.20
2018-01-19T07:44:26.430Z,6.27
2018-01-19T07:45:26.412Z,6.08
2018-01-19T07:46:26.396Z,6.08
2018-01-19T07:47:26.377Z,6.02
2018-01-19T07:48:26.368Z,6.01
2018-01-19T07:49:26.346Z,6.02
2018-01-19T07:50:26.328Z,5.92
2018-01-19T07:51:26.312Z,5.95
2018-01-19T07:52:26.296Z,5.99
2018-01-19T07:53:26.281Z,5.87
2018-01-19T07:54:26.276Z,5.74
2018-01-19T07:55:26.248Z,5.70
2018-01-19T07:56:26.241Z,5.78
2018-01-19T07:57:26.220Z,5.74
2018-01-19T07:58:26.205Z,5.66
2018-01-19T07:59:26.188Z,5.59
2018-01-19T08:00:26.176Z,5.62
2018-01-19T08:01:26.157Z,5.52
2018-01-19T08:02:26.138Z,5.45
2018-01-19T08:03:26.122Z,5.48
2018-01-19T08:04:26.111Z,5.42
2018-01-19T08:05:26.094Z,5.55
2018-01-19T08:06:26.073Z,5.58
2018-01-19T08:07:26.061Z,5.40
2018-01-19T08:08:26.047Z,5.45
2018-01-19T08:09:26.035Z,5.49
2018-01-19T08:10:26.013Z,5.48
2018-01-19T08:11:25.998Z,5.48
2018-01-19T08:12:25.980Z,5.45
2018-01-19T08:13:25.962Z,5.37
2018-01-19T08:14:25.947Z,5.44
2018-01-19T08:15:25.931Z,5.42
2018-01-19T08:16:25.914Z,5.33
2018-01-19T08:17:25.900Z,5.38
2018-01-19T08:18:25.880Z,5.29
2018-01-19T08:19:25.867Z,5.26
2018-01-19T08:20:25.855Z,5.24
2018-01-19T08:21:25.834Z,5.23
2018-01-19T08:22:25.818Z,5.23
2018-01-19T08:23:25.802Z,5.22
2018-01-19T08:24:25.793Z,5.22
2018-01-19T08:25:25.778Z,5.19
2018-01-19T08:26:25.757Z,5.11
2018-01-19T08:27:25.740Z,5.20
2018-01-19T08:28:25.729Z,5.19
2018-01-19T08:29:25.711Z,5.17
2018-01-19T08:30:25.692Z,5.24
2018-01-19T08:31:25.680Z,5.30
2018-01-19T08:32:25.661Z,5.17
2018-01-19T08:33:25.644Z,5.22
2018-01-19T08:34:25.628Z,5.27
2018-01-19T08:35:25.615Z,5.14
2018-01-19T08:36:25.601Z,5.12
2018-01-19T08:37:25.589Z,5.24
2018-01-19T08:38:25.565Z,5.23
2018-01-19T08:39:25.551Z,5.35
2018-01-19T08:40:25.538Z,5.30
2018-01-19T08:41:25.524Z,5.41
2018-01-19T08:42:25.510Z,5.40
2018-01-19T08:43:25.493Z,5.48
2018-01-19T08:44:25.479Z,5.59
2018-01-19T08:45:25.456Z,5.65
2018-01-19T08:46:25.446Z,5.69
2018-01-19T08:47:25.430Z,5.77
2018-01-19T08:48:25.414Z,5.80
2018-01-19T08:49:25.393Z,5.88
2018-01-19T08:50:25.379Z,5.93
2018-01-19T08:51:25.362Z,6.10
2018-01-19T08:52:25.349Z,6.20
2018-01-19T08:53:25.340Z,6.21
2018-01-19T08:54:25.319Z,6.27
2018-01-19T08:55:25.300Z,6.30
2018-01-19T08:56:25.287Z,6.45
2018-01-19T08:57:25.271Z,6.54
2018-01-19T08:58:25.253Z,6.55
2018-01-19T08:59:25.239Z,6.54
2018-01-19T09:00:25.229Z,6.48
2018-01-19T09:01:25.213Z,6.48
2018-01-19T09:02:25.196Z,6.42
2018-01-19T09:03:25.178Z,6.42
2018-01-19T09:04:25.163Z,6.48
2018-01-19T09:05:25.147Z,6.42
2018-01-19T09:06:25.140Z,6.43
2018-01-19T09:07:25.117Z,6.45
2018-01-19T09:08:25.100Z,6.40
2018-01-19T09:09:25.092Z,6.42
2018-01-19T09:10:25.080Z,6.48
2018-01-19T09:11:25.061Z,6.69
2018-01-19T09:12:25.041Z,6.79
2018-01-19T09:13:25.025Z,7.00
2018-01-19T09:14:25.012Z,7.15
2018-01-19T09:15:24.995Z,7.21
2018-01-19T09:16:24.981Z,7.32
2018-01-19T09:17:24.965Z,7.42
2018-01-19T09:18:24.951Z,7.52
2018-01-19T09:19:24.943Z,7.47
2018-01-19T09:20:24.919Z,7.81
2018-01-19T09:21:24.908Z,7.85
2018-01-19T09:22:24.897Z,7.92
2018-01-19T09:23:24.877Z,8.10
2018-01-19T09:24:24.870Z,8.12
2018-01-19T09:25:24.849Z,8.31
2018-01-19T09:26:24.833Z,8.29
2018-01-19T09:27:24.818Z,8.29
2018-01-19T09:28:24.805Z,8.31
2018-01-19T09:29:24.800Z,8.34
2018-01-19T09:30:24.776Z,8.40
2018-01-19T09:31:24.764Z,8.37
2018-01-19T09:32:24.748Z,8.28
2018-01-19T09:33:24.735Z,8.28
2018-01-19T09:34:24.729Z,7.85
2018-01-19T09:35:24.711Z,7.89
2018-01-19T09:36:24.692Z,7.79
2018-01-19T09:37:24.678Z,7.54
2018-01-19T09:38:24.665Z,7.57
2018-01-19T09:39:24.650Z,7.39
2018-01-19T09:40:24.638Z,7.04
2018-01-19T09:41:24.626Z,6.63
2018-01-19T09:42:24.616Z,6.43
2018-01-19T09:43:24.596Z,6.25
2018-01-19T09:44:24.583Z,6.06
2018-01-19T09:45:24.569Z,6.11
2018-01-19T09:46:24.556Z,6.08
2018-01-19T09:47:24.536Z,6.10
2018-01-19T09:48:24.526Z,6.20
2018-01-19T09:49:24.513Z,6.10
2018-01-19T09:50:24.491Z,6.21
2018-01-19T09:51:24.479Z,6.35
2018-01-19T09:52:24.462Z,6.57
2018-01-19T09:53:24.446Z,6.72
2018-01-19T09:54:24.432Z,6.78
2018-01-19T09:55:24.416Z,6.99
2018-01-19T09:56:24.403Z,6.90
2018-01-19T09:57:24.386Z,6.99
2018-01-19T09:58:24.375Z,7.19
2018-01-19T09:59:24.365Z,7.23
2018-01-19T10:00:24.342Z,7.26
2018-01-19T10:01:24.327Z,7.32
2018-01-19T10:02:24.313Z,7.24
2018-01-19T10:03:24.297Z,7.26
2018-01-19T10:04:24.283Z,7.15
2018-01-19T10:05:24.267Z,7.15
2018-01-19T10:06:24.253Z,7.23
2018-01-19T10:07:24.243Z,7.21
2018-01-19T10:08:24.224Z,7.16
2018-01-19T10:09:24.209Z,7.15
2018-01-19T10:10:24.193Z,7.16
2018-01-19T10:11:24.180Z,7.12
2018-01-19T10:12:24.165Z,7.18
2018-01-19T10:13:24.152Z,7.08
2018-01-19T10:14:24.137Z,6.99
2018-01-19T10:15:24.122Z,6.97
2018-01-19T10:16:24.116Z,7.07
2018-01-19T10:17:24.094Z,7.09
2018-01-19T10:18:24.078Z,7.05
2018-01-19T10:19:24.062Z,7.15
2018-01-19T10:20:24.053Z,7.15
2018-01-19T10:21:24.033Z,7.18
2018-01-19T10:22:24.022Z,7.19
2018-01-19T10:23:24.007Z,7.14
2018-01-19T10:24:23.990Z,7.19
2018-01-19T10:25:23.976Z,7.21
2018-01-19T10:26:23.961Z,7.27
2018-01-19T10:27:23.952Z,7.37
2018-01-19T10:28:23.934Z,7.36
2018-01-19T10:29:23.926Z,7.16
2018-01-19T10:30:23.904Z,7.21
2018-01-19T10:31:23.890Z,7.21
2018-01-19T10:32:23.880Z,7.08
2018-01-19T10:33:23.867Z,7.07
2018-01-19T10:34:23.846Z,6.83
2018-01-19T10:35:23.834Z,6.83
2018-01-19T10:36:23.814Z,6.71
2018-01-19T10:37:23.801Z,6.94
2018-01-19T10:38:23.788Z,7.05
2018-01-19T10:39:23.772Z,7.00
2018-01-19T10:40:23.762Z,7.09
2018-01-19T10:41:23.744Z,7.12
2018-01-19T10:42:23.727Z,7.01
2018-01-19T10:43:23.712Z,7.04
2018-01-19T10:44:23.699Z,7.04
2018-01-19T10:45:23.683Z,7.23
2018-01-19T10:46:23.673Z,7.21
2018-01-19T10:47:23.661Z,7.14
2018-01-19T10:48:23.647Z,7.11
2018-01-19T10:49:23.630Z,7.16
2018-01-19T10:50:23.611Z,7.18
2018-01-19T10:51:23.599Z,7.05
2018-01-19T10:52:23.591Z,6.97
2018-01-19T10:53:23.568Z,7.04
2018-01-19T10:54:23.550Z,7.04
2018-01-19T10:55:23.536Z,7.05
2018-01-19T10:56:23.523Z,7.05
2018-01-19T10:57:23.559Z,7.08
2018-01-19T10:58:23.494Z,7.11
2018-01-19T10:59:23.476Z,7.15
2018-01-19T11:00:23.468Z,7.08
2018-01-19T11:01:23.461Z,7.09
2018-01-19T11:02:23.433Z,7.15
2018-01-19T11:03:23.419Z,7.08
2018-01-19T11:04:23.404Z,7.09
2018-01-19T11:05:23.390Z,7.11
2018-01-19T11:06:23.383Z,7.19
2018-01-19T11:07:23.360Z,7.19
2018-01-19T11:08:23.352Z,7.27
2018-01-19T11:09:23.333Z,7.27
2018-01-19T11:10:23.318Z,7.42
2018-01-19T11:11:23.303Z,7.45
2018-01-19T11:12:23.295Z,7.48
2018-01-19T11:13:23.274Z,7.42
2018-01-19T11:14:23.266Z,7.47
2018-01-19T11:15:23.246Z,7.45
2018-01-19T11:16:23.233Z,7.47
2018-01-19T11:17:23.223Z,7.41
2018-01-19T11:18:23.207Z,7.39
2018-01-19T11:19:23.187Z,7.47
2018-01-19T11:20:23.175Z,7.48
2018-01-19T11:21:23.158Z,7.47
2018-01-19T11:22:23.149Z,7.42
2018-01-19T11:23:23.130Z,7.39
2018-01-19T11:24:23.116Z,7.42
2018-01-19T11:25:23.100Z,7.48
2018-01-19T11:26:23.089Z,7.51
2018-01-19T11:27:23.073Z,7.45
2018-01-19T11:28:23.066Z,7.44
2018-01-19T11:29:23.046Z,7.45
2018-01-19T11:30:23.033Z,7.44
2018-01-19T11:31:23.022Z,7.44
2018-01-19T11:32:23.003Z,7.44
2018-01-19T11:33:22.989Z,7.63
2018-01-19T11:34:22.981Z,7.62
2018-01-19T11:35:22.965Z,7.69
2018-01-19T11:36:22.945Z,7.74
2018-01-19T11:37:22.931Z,7.82
2018-01-19T11:38:22.926Z,7.86
2018-01-19T11:39:22.910Z,7.96
2018-01-19T11:40:22.890Z,7.96
2018-01-19T11:41:22.877Z,7.92
2018-01-19T11:42:22.862Z,7.91
2018-01-19T11:43:22.849Z,7.94
2018-01-19T11:44:22.840Z,7.96
2018-01-19T11:45:22.826Z,7.89
2018-01-19T11:46:22.807Z,7.94
2018-01-19T11:47:22.797Z,7.96
2018-01-19T11:48:22.830Z,7.92
2018-01-19T11:49:22.770Z,7.96
2018-01-19T11:50:22.758Z,7.96
2018-01-19T11:51:22.741Z,7.95
2018-01-19T11:52:22.730Z,7.92
2018-01-19T11:53:22.709Z,7.94
2018-01-19T11:54:22.695Z,7.95
2018-01-19T11:55:22.681Z,8.09
2018-01-19T11:56:22.666Z,8.10
2018-01-19T11:57:22.663Z,8.10
2018-01-19T11:58:22.642Z,8.21
2018-01-19T11:59:22.626Z,8.03
2018-01-19T12:00:22.613Z,8.17
2018-01-19T12:01:22.599Z,8.17
2018-01-19T12:02:22.592Z,8.14
2018-01-19T12:03:22.574Z,8.24
2018-01-19T12:04:22.558Z,8.31
2018-01-19T12:05:22.559Z,8.22
2018-01-19T12:06:22.536Z,8.21
2018-01-19T12:07:22.518Z,8.32
2018-01-19T12:08:22.514Z,8.29
2018-01-19T12:09:22.491Z,8.28
2018-01-19T12:10:22.483Z,8.31
2018-01-19T12:11:22.469Z,8.29
2018-01-19T12:12:22.459Z,8.34
2018-01-19T12:13:22.440Z,8.37
2018-01-19T12:14:22.424Z,8.39
2018-01-19T12:15:22.413Z,8.28
2018-01-19T12:16:22.397Z,8.22
2018-01-19T12:17:22.385Z,8.24
2018-01-19T12:18:22.371Z,8.18
2018-01-19T12:19:22.359Z,8.13
2018-01-19T12:20:22.350Z,8.13
2018-01-19T12:21:22.333Z,8.14
2018-01-19T12:22:22.324Z,8.20
2018-01-19T12:23:22.352Z,8.09
2018-01-19T12:24:22.292Z,8.20
2018-01-19T12:25:22.286Z,8.13
2018-01-19T12:26:22.266Z,8.24
2018-01-19T12:27:22.253Z,8.27
2018-01-19T12:28:22.240Z,8.21
2018-01-19T12:29:22.225Z,8.27
2018-01-19T12:30:22.212Z,8.37
2018-01-19T12:31:22.197Z,8.29
2018-01-19T12:32:22.186Z,8.36
2018-01-19T12:33:22.173Z,8.40
2018-01-19T12:34:22.161Z,8.43
2018-01-19T12:35:22.151Z,8.54
2018-01-19T12:36:22.132Z,8.52
2018-01-19T12:37:22.120Z,8.63
2018-01-19T12:38:22.111Z,8.67
2018-01-19T12:39:22.100Z,8.75
2018-01-19T12:40:22.095Z,8.76
2018-01-19T12:41:22.072Z,8.73
2018-01-19T12:42:22.054Z,8.67
2018-01-19T12:43:22.038Z,8.93
2018-01-19T12:44:22.033Z,8.93
2018-01-19T12:45:22.013Z,8.94
2018-01-19T12:46:22.002Z,8.93
2018-01-19T12:47:21.995Z,8.96
2018-01-19T12:48:21.980Z,9.00
2018-01-19T12:49:21.964Z,8.88
2018-01-19T12:50:21.955Z,8.89
2018-01-19T12:51:21.934Z,8.83
2018-01-19T12:52:21.927Z,8.88
2018-01-19T12:53:21.910Z,8.79
2018-01-19T12:54:21.895Z,8.91
2018-01-19T12:55:21.884Z,8.73
2018-01-19T12:56:21.875Z,8.75
2018-01-19T12:57:21.856Z,8.65
2018-01-19T12:58:21.843Z,8.61
2018-01-19T12:59:21.838Z,8.68
2018-01-19T13:00:21.816Z,8.61
2018-01-19T13:01:21.804Z,8.52
2018-01-19T13:02:21.798Z,8.61
2018-01-19T13:03:21.786Z,8.76
2018-01-19T13:04:21.764Z,8.65
2018-01-19T13:05:21.754Z,8.68
2018-01-19T13:06:21.741Z,8.76
2018-01-19T13:07:21.732Z,8.86
2018-01-19T13:08:21.713Z,8.88
2018-01-19T13:09:21.700Z,8.94
2018-01-19T13:10:21.688Z,8.94
2018-01-19T13:11:21.673Z,8.83
2018-01-19T13:12:21.660Z,8.78
2018-01-19T13:13:21.646Z,8.76
2018-01-19T13:14:21.634Z,8.73
2018-01-19T13:15:21.624Z,8.79
2018-01-19T13:16:21.609Z,8.82
2018-01-19T13:17:21.594Z,8.89
2018-01-19T13:18:21.629Z,8.82